Columbus, OH (43214)

4:18 PM EDT on May 22, 2015 (GMT -0400)
Clintonville - School for Young Children / First UU | | Change Station
CLOSE
Current Station
Personal Weather Station
Location: Columbus, OH
Elevation: 814 ft
Nearby Weather Stations

Elev 814 ft 40.05 °N, 83.02 °W | Updated 2 seconds ago

Mostly Cloudy
Mostly Cloudy
71.2 °F
Feels Like 77 °F
N
2.9
Wind Variable Wind from NE
Gusts 9.0 mph

Today
High -- | Low -- °F
--% Chance of Precip.
Yesterday
High -- | Low -- °F
Precip. -- in
6:11 AM 8:46 PM
Waxing Crescent, 23% visible
Pressure 30.17 in
Visibility 10.0 miles
Clouds Scattered Clouds 6000 ft
Scattered Clouds 10000 ft
Heat Index 77 °F
Dew Point 50 °F
Humidity 47%
Rainfall 0.00 in
Snow Depth Not available.
UV 2.4 out of 12
Pollen 9.70 out of 12
Air Quality Not available.
Flu Activity Local Activity
METAR KOSU 221953Z 34011G16KT 10SM SCT060 SCT100 22/09 A3016 RMK AO2 SLP214 T02170094

More Conditions Fewer Conditions

Pressure 30.17 in
Visibility 10.0 miles
Clouds Scattered Clouds 6000 ft
Scattered Clouds 10000 ft
Heat Index 77 °F
Dew Point 50 °F
Humidity 47%
Rainfall 0.00 in
Snow Depth Not available.
UV 2.4 out of 12
Pollen 9.70 out of 12
Air Quality Not available.
Flu Activity Local Activity
METAR KOSU 221953Z 34011G16KT 10SM SCT060 SCT100 22/09 A3016 RMK AO2 SLP214 T02170094

More Conditions Fewer Conditions

10-Day Weather Forecast

Almanac

Astronomy

May. 22, 2015 Rise Set
Actual Time
Civil Twilight
Nautical Twilight
Astronomical Twilight
Moon
Length of Visible Light
Length of Day
Tomorrow will be .
, % of the Moon is Illuminated

Today's Extremes

State Highs State Lows

Community

WunderPhotos

Upload Photos

1,823,288 photos uploaded!

WunderBlogs® & News

Nearby

Air Quality

  Air Quality AQ Index Pollutant
Not available.

Snow Depth

Station Depth Elevation

Earthquake Activity

City Distance Mag. Time & Date
Minimum magnitude displayed is 2.5.

Coastal Water Temperatures

Place Temperature

Stations

Nearby Weather Stations

Station Location Temp. Windchill Dew Point Humidity Wind Precip. Elev Updated Type